createdAt,value
2018-12-04T00:03:56.855Z,86.25
2018-12-04T00:06:25.114Z,85.83
2018-12-04T00:08:53.483Z,85.14
2018-12-04T00:11:22.044Z,84.95
2018-12-04T00:13:51.802Z,85.70
2018-12-04T00:16:20.659Z,86.27
2018-12-04T00:18:49.269Z,85.44
2018-12-04T00:21:18.141Z,85.54
2018-12-04T00:23:46.474Z,86.08
2018-12-04T00:26:15.263Z,86.20
2018-12-04T00:28:44.214Z,85.89
2018-12-04T00:31:12.767Z,86.10
2018-12-04T00:33:41.385Z,86.08
2018-12-04T00:36:09.692Z,86.37
2018-12-04T00:38:38.078Z,86.11
2018-12-04T00:41:06.380Z,85.69
2018-12-04T00:43:34.876Z,86.68
2018-12-04T00:46:03.185Z,86.88
2018-12-04T00:48:31.473Z,86.92
2018-12-04T00:50:59.747Z,86.96
2018-12-04T00:53:28.020Z,87.03
2018-12-04T00:55:56.323Z,86.35
2018-12-04T00:58:24.596Z,86.80
2018-12-04T01:00:52.858Z,86.59
2018-12-04T01:03:21.583Z,86.19
2018-12-04T01:05:50.239Z,84.93
2018-12-04T01:08:18.574Z,86.00
2018-12-04T01:10:47.363Z,85.99
2018-12-04T01:13:15.888Z,86.63
2018-12-04T01:15:44.152Z,85.74
2018-12-04T01:18:12.549Z,85.13
2018-12-04T01:20:41.039Z,83.44
2018-12-04T01:23:09.308Z,83.87
2018-12-04T01:25:37.571Z,82.75
2018-12-04T01:28:05.856Z,83.14
2018-12-04T01:30:34.133Z,82.32
2018-12-04T01:33:02.844Z,82.58
2018-12-04T01:35:31.149Z,83.27
2018-12-04T01:37:59.423Z,83.13
2018-12-04T01:40:27.743Z,83.65
2018-12-04T01:42:56.074Z,84.63
2018-12-04T01:45:24.359Z,84.46
2018-12-04T01:47:53.413Z,84.38
2018-12-04T01:50:21.731Z,85.32
2018-12-04T01:52:49.979Z,85.37
2018-12-04T01:55:18.316Z,84.39
2018-12-04T01:57:46.631Z,84.23
2018-12-04T02:00:15.073Z,85.20
2018-12-04T02:02:43.351Z,84.78
2018-12-04T02:05:12.004Z,85.93
2018-12-04T02:07:40.329Z,84.45
2018-12-04T02:10:08.834Z,84.18
2018-12-04T02:12:37.101Z,83.65
2018-12-04T02:15:05.644Z,83.95
2018-12-04T02:17:33.948Z,83.66
2018-12-04T02:20:02.347Z,83.68
2018-12-04T02:22:30.699Z,84.62
2018-12-04T02:24:59.546Z,83.25
2018-12-04T02:27:28.222Z,83.38
2018-12-04T02:29:56.813Z,83.16
2018-12-04T02:32:25.062Z,84.09
2018-12-04T02:34:54.031Z,83.78
2018-12-04T02:37:22.306Z,82.85
2018-12-04T02:39:50.652Z,82.51
2018-12-04T02:45:04.541Z,82.15
2018-12-04T02:47:33.562Z,82.17
2018-12-04T02:50:02.168Z,81.54
2018-12-04T02:52:31.867Z,80.88
2018-12-04T02:55:00.657Z,80.98
2018-12-04T02:57:29.258Z,80.79
2018-12-04T02:59:57.864Z,81.80
2018-12-04T03:02:26.260Z,81.29
2018-12-04T03:04:55.747Z,81.45
2018-12-04T03:07:24.019Z,81.20
2018-12-04T03:09:52.314Z,82.00
2018-12-04T03:12:20.963Z,81.06
2018-12-04T03:14:49.546Z,81.90
2018-12-04T03:17:18.763Z,81.16
2018-12-04T03:19:47.129Z,80.74
2018-12-04T03:22:15.744Z,80.69
2018-12-04T03:24:44.319Z,81.15
2018-12-04T03:27:12.607Z,81.41
2018-12-04T03:29:40.858Z,80.53
2018-12-04T03:34:54.930Z,80.61
2018-12-04T03:37:23.294Z,80.00
2018-12-04T03:39:51.559Z,80.32
2018-12-04T03:42:21.003Z,80.42
2018-12-04T03:44:49.274Z,80.00
2018-12-04T03:47:17.830Z,80.11
2018-12-04T03:49:46.155Z,79.41
2018-12-04T03:52:14.742Z,80.32
2018-12-04T03:57:22.982Z,79.35
2018-12-04T03:59:51.280Z,79.66
2018-12-04T04:02:19.548Z,80.37
2018-12-04T04:04:47.937Z,80.91
2018-12-04T04:07:16.375Z,81.67
2018-12-04T04:09:44.647Z,81.85
2018-12-04T04:12:13.276Z,82.15
2018-12-04T04:14:41.607Z,82.58
2018-12-04T04:17:09.909Z,82.76
2018-12-04T04:19:38.528Z,82.77
2018-12-04T04:22:07.154Z,82.85
2018-12-04T04:24:36.526Z,83.05
2018-12-04T04:27:05.398Z,84.75
2018-12-04T04:29:33.750Z,84.65
2018-12-04T04:32:02.043Z,85.64
2018-12-04T04:34:30.372Z,84.96
2018-12-04T04:36:58.987Z,84.38
2018-12-04T04:39:27.287Z,84.55
2018-12-04T04:41:55.612Z,83.90
2018-12-04T04:44:23.874Z,83.49
2018-12-04T04:46:52.175Z,84.19
2018-12-04T04:49:20.785Z,84.97
2018-12-04T04:51:49.262Z,84.46
2018-12-04T04:54:19.888Z,84.43
2018-12-04T04:56:48.177Z,83.51
2018-12-04T04:59:16.781Z,83.91
2018-12-04T05:01:45.671Z,84.05
2018-12-04T05:04:14.250Z,85.08
2018-12-04T05:06:42.533Z,85.45
2018-12-04T05:09:11.227Z,86.10
2018-12-04T05:11:39.523Z,85.38
2018-12-04T05:14:07.798Z,85.28
2018-12-04T05:16:36.092Z,85.97
2018-12-04T05:19:04.753Z,86.53
2018-12-04T05:21:33.309Z,85.97
2018-12-04T05:24:01.578Z,86.79
2018-12-04T05:26:30.277Z,86.20
2018-12-04T05:28:58.632Z,86.77
2018-12-04T05:31:26.842Z,86.28
2018-12-04T05:33:55.384Z,86.79
2018-12-04T05:36:24.405Z,85.71
2018-12-04T05:38:53.070Z,85.89
2018-12-04T05:41:21.307Z,86.20
2018-12-04T05:43:49.617Z,85.78
2018-12-04T05:46:17.927Z,85.65
2018-12-04T05:48:46.863Z,86.25
2018-12-04T05:51:15.160Z,86.53
2018-12-04T05:53:43.781Z,86.04
2018-12-04T05:56:13.214Z,85.83
2018-12-04T05:58:41.492Z,83.61
2018-12-04T06:01:09.794Z,83.91
2018-12-04T06:03:38.462Z,84.42
2018-12-04T06:06:06.769Z,84.57
2018-12-04T06:08:35.513Z,83.71
2018-12-04T06:11:03.935Z,83.57
2018-12-04T06:13:32.229Z,82.64
2018-12-04T06:16:00.699Z,82.55
2018-12-04T06:18:29.010Z,81.50
2018-12-04T06:20:57.465Z,82.07
2018-12-04T06:23:25.795Z,82.29
2018-12-04T06:25:54.583Z,82.51
2018-12-04T06:28:22.961Z,81.98
2018-12-04T06:30:51.238Z,81.28
2018-12-04T06:33:19.513Z,81.80
2018-12-04T06:35:48.202Z,82.59
2018-12-04T06:38:16.472Z,81.76
2018-12-04T06:40:44.870Z,82.12
2018-12-04T06:43:13.205Z,82.71
2018-12-04T06:45:42.330Z,83.32
2018-12-04T06:48:10.611Z,80.92
2018-12-04T06:50:39.234Z,82.16
2018-12-04T06:53:07.635Z,81.80
2018-12-04T06:55:36.055Z,81.62
2018-12-04T06:58:04.726Z,81.58
2018-12-04T07:00:33.070Z,82.04
2018-12-04T07:03:01.685Z,82.22
2018-12-04T07:05:29.963Z,81.79
2018-12-04T07:07:58.341Z,81.86
2018-12-04T07:10:26.679Z,81.95
2018-12-04T07:12:55.180Z,81.67
2018-12-04T07:15:24.089Z,81.82
2018-12-04T07:17:52.497Z,81.58
2018-12-04T07:20:21.020Z,81.00
2018-12-04T07:22:49.330Z,80.20
2018-12-04T07:25:17.661Z,79.83
2018-12-04T07:27:45.964Z,79.96
2018-12-04T07:30:14.500Z,80.05
2018-12-04T07:32:43.274Z,80.58
2018-12-04T07:35:11.524Z,80.73
2018-12-04T07:37:40.121Z,79.28
2018-12-04T07:40:09.032Z,80.08
2018-12-04T07:42:37.404Z,80.83
2018-12-04T07:45:06.482Z,80.70
2018-12-04T07:47:34.774Z,80.35
2018-12-04T07:50:03.376Z,79.78
2018-12-04T07:52:31.743Z,78.94
2018-12-04T07:55:00.117Z,78.18
2018-12-04T07:57:29.210Z,78.49
2018-12-04T07:59:57.514Z,79.49
2018-12-04T08:02:26.178Z,78.92
2018-12-04T08:04:54.481Z,78.01
2018-12-04T08:07:22.754Z,78.44
2018-12-04T08:09:51.783Z,78.22
2018-12-04T08:12:20.111Z,78.00
2018-12-04T08:14:48.721Z,78.60
2018-12-04T08:17:17.226Z,79.64
2018-12-04T08:19:45.802Z,78.74
2018-12-04T08:22:14.111Z,77.59
2018-12-04T08:24:42.762Z,78.66
2018-12-04T08:27:16.064Z,76.72
2018-12-04T08:29:44.496Z,76.05
2018-12-04T08:32:13.871Z,75.90
2018-12-04T08:34:42.155Z,76.09
2018-12-04T08:37:11.010Z,76.29
2018-12-04T08:39:39.315Z,76.49
2018-12-04T08:42:07.899Z,75.99
2018-12-04T08:44:36.205Z,76.21
2018-12-04T08:47:04.538Z,75.37
2018-12-04T08:49:33.062Z,74.69
2018-12-04T08:52:01.384Z,75.21
2018-12-04T08:54:29.956Z,74.82
2018-12-04T08:56:58.865Z,74.73
2018-12-04T08:59:27.791Z,74.17
2018-12-04T09:01:56.808Z,74.17
2018-12-04T09:04:25.079Z,74.23
2018-12-04T09:06:53.436Z,72.94
2018-12-04T09:12:00.487Z,72.27
2018-12-04T09:14:28.819Z,72.85
2018-12-04T09:16:57.755Z,72.31
2018-12-04T09:19:26.345Z,72.11
2018-12-04T09:21:55.630Z,73.22
2018-12-04T09:24:30.509Z,73.57
2018-12-04T09:26:55.120Z,73.23
2018-12-04T09:29:23.543Z,72.46
2018-12-04T09:31:53.132Z,72.02
2018-12-04T09:34:22.033Z,72.48
2018-12-04T09:36:50.358Z,72.39
2018-12-04T09:39:18.777Z,72.49
2018-12-04T09:41:47.086Z,72.51
2018-12-04T09:44:15.416Z,70.94
2018-12-04T09:46:43.765Z,72.67
2018-12-04T09:49:12.462Z,71.72
2018-12-04T09:51:41.000Z,71.02
2018-12-04T09:54:09.586Z,71.41
2018-12-04T09:56:39.178Z,69.88
2018-12-04T09:59:07.983Z,70.02
2018-12-04T10:01:37.169Z,70.24
2018-12-04T10:04:05.866Z,68.92
2018-12-04T10:06:34.455Z,68.89
2018-12-04T10:09:05.167Z,68.68
2018-12-04T10:11:33.445Z,69.27
2018-12-04T10:14:01.825Z,68.53
2018-12-04T10:16:30.123Z,69.91
2018-12-04T10:18:58.908Z,70.26
2018-12-04T10:21:27.206Z,69.20
2018-12-04T10:23:55.680Z,70.17
2018-12-04T10:26:25.061Z,71.33
2018-12-04T10:28:53.624Z,71.13
2018-12-04T10:31:21.981Z,70.68
2018-12-04T10:33:50.303Z,69.26
2018-12-04T10:36:18.790Z,68.43
2018-12-04T10:38:47.091Z,68.66
2018-12-04T10:41:15.407Z,68.25
2018-12-04T10:43:44.049Z,68.61
2018-12-04T10:46:12.378Z,69.09
2018-12-04T10:48:40.716Z,70.85
2018-12-04T10:51:09.311Z,72.30
2018-12-04T10:53:37.596Z,73.92
2018-12-04T10:56:06.691Z,73.86
2018-12-04T10:58:35.638Z,74.59
2018-12-04T11:01:09.573Z,75.64
2018-12-04T11:03:38.489Z,75.25
2018-12-04T11:06:07.356Z,72.03
2018-12-04T11:08:36.139Z,74.54
2018-12-04T11:11:04.702Z,74.03
2018-12-04T11:13:33.609Z,72.41
2018-12-04T11:16:01.925Z,72.40
2018-12-04T11:18:30.949Z,72.35
2018-12-04T11:20:59.693Z,72.60
2018-12-04T11:23:28.606Z,71.98
2018-12-04T11:25:56.947Z,72.60
2018-12-04T11:28:25.280Z,72.87
2018-12-04T11:30:53.672Z,69.88
2018-12-04T11:33:21.991Z,71.40
2018-12-04T11:35:50.302Z,70.73
2018-12-04T11:38:20.508Z,70.70
2018-12-04T11:40:48.843Z,71.64
2018-12-04T11:43:18.219Z,72.26
2018-12-04T11:45:46.774Z,70.81
2018-12-04T11:48:15.998Z,70.39
2018-12-04T11:50:44.342Z,70.45
2018-12-04T11:53:12.682Z,71.12
2018-12-04T11:55:41.718Z,71.45
2018-12-04T11:58:09.977Z,70.90
2018-12-04T12:00:39.445Z,69.87
2018-12-04T12:03:08.199Z,69.81
2018-12-04T12:05:36.509Z,70.57
2018-12-04T12:08:06.944Z,70.83
2018-12-04T12:10:35.325Z,71.92
2018-12-04T12:13:03.521Z,73.56
2018-12-04T12:15:32.113Z,74.18
2018-12-04T12:18:00.359Z,75.06
2018-12-04T12:20:29.044Z,74.35
2018-12-04T12:22:58.039Z,73.16
2018-12-04T12:25:26.496Z,75.64
2018-12-04T12:27:55.012Z,76.11
2018-12-04T12:30:23.277Z,78.64
2018-12-04T12:32:51.930Z,80.40
2018-12-04T12:35:20.271Z,79.84
2018-12-04T12:37:48.705Z,79.38
2018-12-04T12:40:17.510Z,80.46
2018-12-04T12:42:46.221Z,79.23
2018-12-04T12:45:14.647Z,79.88
2018-12-04T12:47:42.980Z,79.60
2018-12-04T12:50:11.328Z,79.66
2018-12-04T12:52:39.650Z,79.68
2018-12-04T12:55:08.058Z,79.02
2018-12-04T12:57:36.638Z,78.83
2018-12-04T13:00:07.424Z,78.00
2018-12-04T13:02:36.070Z,78.46
2018-12-04T13:05:04.901Z,79.62
2018-12-04T13:07:33.209Z,77.25
2018-12-04T13:10:01.517Z,77.21
2018-12-04T13:12:30.068Z,77.83
2018-12-04T13:14:58.728Z,76.69
2018-12-04T13:17:27.067Z,76.81
2018-12-04T13:19:55.866Z,76.37
2018-12-04T13:22:24.726Z,76.77
2018-12-04T13:24:53.651Z,77.72
2018-12-04T13:27:22.339Z,76.91
2018-12-04T13:29:51.179Z,78.23
2018-12-04T13:32:19.780Z,77.05
2018-12-04T13:34:48.107Z,79.37
2018-12-04T13:37:16.461Z,78.95
2018-12-04T13:39:44.742Z,79.20
2018-12-04T13:42:13.295Z,78.46
2018-12-04T13:44:41.894Z,79.64
2018-12-04T13:47:10.594Z,81.21
2018-12-04T13:49:38.995Z,80.53
2018-12-04T13:52:07.977Z,81.43
2018-12-04T13:54:37.376Z,81.50
2018-12-04T13:57:06.542Z,82.67
2018-12-04T13:59:35.015Z,82.95
2018-12-04T14:02:03.720Z,84.14
2018-12-04T14:04:32.034Z,83.87
2018-12-04T14:07:00.476Z,83.44
2018-12-04T14:09:29.155Z,82.07
2018-12-04T14:11:57.531Z,81.11
2018-12-04T14:14:26.357Z,80.44
2018-12-04T14:16:55.831Z,79.96
2018-12-04T14:19:24.681Z,80.63
2018-12-04T14:21:53.342Z,80.89
2018-12-04T14:24:22.550Z,81.74
2018-12-04T14:26:51.486Z,80.94
2018-12-04T14:29:20.168Z,81.08
2018-12-04T14:31:49.118Z,78.93
2018-12-04T14:34:19.185Z,79.79
2018-12-04T14:36:47.653Z,80.75
2018-12-04T14:39:16.285Z,80.74
2018-12-04T14:41:44.607Z,81.40
2018-12-04T14:44:13.274Z,81.90
2018-12-04T14:46:42.009Z,83.70
2018-12-04T14:49:10.993Z,83.89
2018-12-04T14:51:39.273Z,83.89
2018-12-04T14:54:07.949Z,82.96
2018-12-04T14:56:36.686Z,82.68
2018-12-04T14:59:05.069Z,84.15
2018-12-04T15:01:33.902Z,84.72
2018-12-04T15:04:02.583Z,82.38
2018-12-04T15:06:30.907Z,83.17
2018-12-04T15:08:59.279Z,83.26
2018-12-04T15:11:31.310Z,83.21
2018-12-04T15:13:59.898Z,83.30
2018-12-04T15:16:28.627Z,82.86
2018-12-04T15:18:57.122Z,83.55
2018-12-04T15:21:25.430Z,83.57
2018-12-04T15:23:54.278Z,84.17
2018-12-04T15:26:22.779Z,82.27
2018-12-04T15:28:51.390Z,83.57
2018-12-04T15:31:19.650Z,84.24
2018-12-04T15:33:48.354Z,84.67
2018-12-04T15:36:16.830Z,84.25
2018-12-04T15:38:45.560Z,83.93
2018-12-04T15:41:14.263Z,83.94
2018-12-04T15:43:43.299Z,84.64
2018-12-04T15:46:11.834Z,83.45
2018-12-04T15:48:40.600Z,83.64
2018-12-04T15:51:09.428Z,84.55
2018-12-04T15:53:37.768Z,84.12
2018-12-04T15:56:06.450Z,83.99
2018-12-04T15:58:34.752Z,84.62
2018-12-04T16:01:03.091Z,85.20
2018-12-04T16:03:31.657Z,85.37
2018-12-04T16:05:59.970Z,86.18
2018-12-04T16:08:28.354Z,86.42
2018-12-04T16:10:56.854Z,86.43
2018-12-04T16:13:25.303Z,85.85
2018-12-04T16:15:53.575Z,85.61
2018-12-04T16:18:21.945Z,83.99
2018-12-04T16:20:50.823Z,84.41
2018-12-04T16:23:19.165Z,84.94
2018-12-04T16:25:47.872Z,84.79
2018-12-04T16:28:16.103Z,83.79
2018-12-04T16:30:44.483Z,83.07
2018-12-04T16:33:12.905Z,82.01
2018-12-04T16:35:41.454Z,82.32
2018-12-04T16:38:10.130Z,83.55
2018-12-04T16:40:38.853Z,83.05
2018-12-04T16:43:07.535Z,82.99
2018-12-04T16:45:36.221Z,83.99
2018-12-04T16:48:04.592Z,84.16
2018-12-04T16:50:32.887Z,82.89
2018-12-04T16:53:01.530Z,82.65
2018-12-04T16:55:30.619Z,82.24
2018-12-04T16:57:58.954Z,82.71
2018-12-04T17:00:27.244Z,82.74
2018-12-04T17:02:55.570Z,82.58
2018-12-04T17:05:23.745Z,82.49
2018-12-04T17:07:51.992Z,83.17
2018-12-04T17:10:22.585Z,83.08
2018-12-04T17:12:50.578Z,82.55
2018-12-04T17:15:18.928Z,83.41
2018-12-04T17:17:47.278Z,83.90
2018-12-04T17:20:15.596Z,82.55
2018-12-04T17:22:43.935Z,82.44
2018-12-04T17:25:13.222Z,81.84
2018-12-04T17:27:42.435Z,81.95
2018-12-04T17:30:11.648Z,82.12
2018-12-04T17:32:40.183Z,82.63
2018-12-04T17:35:08.527Z,82.80
2018-12-04T17:37:36.859Z,82.91
2018-12-04T17:40:06.201Z,82.46
2018-12-04T17:42:34.882Z,81.36
2018-12-04T17:45:03.819Z,82.67
2018-12-04T17:47:32.193Z,82.75
2018-12-04T17:50:00.450Z,82.35
2018-12-04T17:52:29.090Z,82.18
2018-12-04T17:54:57.315Z,82.85
2018-12-04T17:57:25.869Z,83.18
2018-12-04T17:59:54.123Z,82.61
2018-12-04T18:02:24.790Z,82.19
2018-12-04T18:04:53.150Z,82.71
2018-12-04T18:10:02.755Z,82.22
2018-12-04T18:12:31.217Z,82.86
2018-12-04T18:15:02.347Z,82.11
2018-12-04T18:17:31.069Z,83.17
2018-12-04T18:20:00.179Z,83.27
2018-12-04T18:22:28.901Z,83.44
2018-12-04T18:24:57.298Z,84.06
2018-12-04T18:27:25.691Z,84.42
2018-12-04T18:29:54.141Z,84.00
2018-12-04T18:32:22.959Z,83.76
2018-12-04T18:34:51.690Z,85.03
2018-12-04T18:37:21.905Z,85.00
2018-12-04T18:39:50.875Z,84.37
2018-12-04T18:42:19.178Z,83.34
2018-12-04T18:44:47.740Z,83.37
2018-12-04T18:47:16.240Z,83.23
2018-12-04T18:49:44.488Z,84.25
2018-12-04T18:52:13.348Z,84.20
2018-12-04T18:54:41.734Z,84.37
2018-12-04T18:57:10.530Z,85.10
2018-12-04T18:59:39.678Z,85.68
2018-12-04T19:02:08.000Z,85.51
2018-12-04T19:04:36.992Z,85.07
2018-12-04T19:07:05.675Z,85.62
2018-12-04T19:09:34.270Z,85.98
2018-12-04T19:12:02.538Z,85.50
2018-12-04T19:14:30.824Z,85.06
2018-12-04T19:16:59.678Z,86.50
2018-12-04T19:19:27.999Z,88.32
2018-12-04T19:21:56.270Z,89.64
2018-12-04T19:24:25.351Z,89.58
2018-12-04T19:26:54.044Z,91.63
2018-12-04T19:29:22.910Z,91.83
2018-12-04T19:31:51.230Z,91.98
2018-12-04T19:34:20.909Z,90.81
2018-12-04T19:36:49.731Z,91.18
2018-12-04T19:39:18.318Z,90.46
2018-12-04T19:41:47.894Z,91.14
2018-12-04T19:44:16.514Z,91.18
2018-12-04T19:49:22.663Z,92.31
2018-12-04T19:51:50.966Z,91.90
2018-12-04T19:54:20.431Z,91.43
2018-12-04T19:56:48.690Z,91.34
2018-12-04T19:59:17.252Z,89.51
2018-12-04T20:01:46.402Z,90.55
2018-12-04T20:04:15.939Z,89.90
2018-12-04T20:06:44.767Z,90.57
2018-12-04T20:09:13.706Z,90.22
2018-12-04T20:11:42.587Z,89.38
2018-12-04T20:14:11.324Z,89.10
2018-12-04T20:16:39.543Z,89.20
2018-12-04T20:19:08.996Z,89.99
2018-12-04T20:21:37.222Z,90.20
2018-12-04T20:24:05.697Z,90.41
2018-12-04T20:26:34.877Z,91.57
2018-12-04T20:29:03.138Z,91.15
2018-12-04T20:31:31.681Z,91.21
2018-12-04T20:34:01.808Z,91.63
2018-12-04T20:36:32.146Z,91.81
2018-12-04T20:39:00.687Z,91.58
2018-12-04T20:41:33.136Z,92.29
2018-12-04T20:44:01.513Z,91.61
2018-12-04T20:46:33.782Z,90.38
2018-12-04T20:49:02.385Z,90.99
2018-12-04T20:51:31.034Z,90.65
2018-12-04T20:53:59.449Z,90.98
2018-12-04T20:56:28.895Z,92.67
2018-12-04T20:58:58.149Z,92.46
2018-12-04T21:01:33.134Z,92.06
2018-12-04T21:04:01.742Z,91.00
2018-12-04T21:06:30.143Z,90.11
2018-12-04T21:08:58.702Z,90.69
2018-12-04T21:11:27.308Z,90.05
2018-12-04T21:13:55.522Z,90.64
2018-12-04T21:16:24.136Z,91.88
2018-12-04T21:18:52.495Z,91.83
2018-12-04T21:21:20.766Z,90.75
2018-12-04T21:23:49.480Z,91.20
2018-12-04T21:26:18.119Z,91.60
2018-12-04T21:28:52.147Z,91.48
2018-12-04T21:31:26.418Z,91.67
2018-12-04T21:34:00.468Z,91.50
2018-12-04T21:36:34.550Z,92.23
2018-12-04T21:39:10.914Z,93.79
2018-12-04T21:41:45.692Z,94.06
2018-12-04T21:44:19.788Z,93.97
2018-12-04T21:46:54.509Z,92.29
2018-12-04T21:49:24.162Z,91.49
2018-12-04T21:51:53.264Z,91.50
2018-12-04T21:54:21.790Z,91.05
2018-12-04T21:56:50.348Z,89.48
2018-12-04T21:59:18.803Z,89.58
2018-12-04T22:01:47.484Z,91.10
2018-12-04T22:04:15.858Z,90.73
2018-12-04T22:06:44.865Z,90.26
2018-12-04T22:09:13.249Z,90.38
2018-12-04T22:11:43.484Z,89.87
2018-12-04T22:14:11.900Z,88.84
2018-12-04T22:16:40.112Z,91.15
2018-12-04T22:19:08.703Z,91.17
2018-12-04T22:21:37.081Z,91.02
2018-12-04T22:24:06.613Z,90.58
2018-12-04T22:26:35.327Z,89.28
2018-12-04T22:29:05.607Z,89.97
2018-12-04T22:31:33.825Z,89.87
2018-12-04T22:34:03.917Z,89.33
2018-12-04T22:36:32.803Z,90.05
2018-12-04T22:39:01.323Z,90.22
2018-12-04T22:41:29.900Z,90.87
2018-12-04T22:43:58.753Z,90.51
2018-12-04T22:46:27.359Z,90.02
2018-12-04T22:48:55.559Z,91.04
2018-12-04T22:51:24.008Z,91.23
2018-12-04T22:53:52.654Z,91.24
2018-12-04T22:56:21.108Z,90.80
2018-12-04T22:58:49.930Z,90.91
2018-12-04T23:01:40.670Z,91.79
2018-12-04T23:04:09.018Z,92.51
2018-12-04T23:06:38.336Z,92.67
2018-12-04T23:09:10.213Z,91.22
2018-12-04T23:11:40.704Z,91.68
2018-12-04T23:14:09.213Z,91.01
2018-12-04T23:16:38.785Z,89.56
2018-12-04T23:19:08.601Z,90.20
2018-12-04T23:24:16.564Z,90.60
2018-12-04T23:26:45.254Z,90.22
2018-12-04T23:29:13.610Z,91.44
2018-12-04T23:31:41.965Z,91.50
2018-12-04T23:34:10.669Z,92.67
2018-12-04T23:36:38.966Z,93.01
2018-12-04T23:39:07.787Z,93.24
2018-12-04T23:41:36.087Z,93.11
2018-12-04T23:44:04.622Z,92.96
2018-12-04T23:46:33.293Z,92.66
2018-12-04T23:49:01.618Z,92.70
2018-12-04T23:51:30.234Z,92.15
2018-12-04T23:53:58.409Z,93.37
2018-12-04T23:56:26.741Z,93.29
